sensor_id;sensor_type;location;lat;lon;timestamp;pressure;altitude;pressure_sealevel;temperature;humidity
51229;BME280;37304;52.216;6.874;2023-04-07T00:00:25;59726.88;;;-147.28;100.00
51229;BME280;37304;52.216;6.874;2023-04-07T00:05:26;59726.88;;;-147.28;100.00
51229;BME280;37304;52.216;6.874;2023-04-07T00:10:26;59726.88;;;-147.28;100.00
51229;BME280;37304;52.216;6.874;2023-04-07T00:15:27;59726.88;;;-147.28;100.00
51229;BME280;37304;52.216;6.874;2023-04-07T00:20:33;59726.88;;;-147.28;100.00
51229;BME280;37304;52.216;6.874;2023-04-07T00:25:36;59726.88;;;-147.28;100.00
51229;BME280;37304;52.216;6.874;2023-04-07T00:30:36;59726.88;;;-147.28;100.00
51229;BME280;37304;52.216;6.874;2023-04-07T00:35:37;59726.88;;;-147.28;100.00
51229;BME280;37304;52.216;6.874;2023-04-07T00:40:38;59726.88;;;-147.28;100.00
51229;BME280;37304;52.216;6.874;2023-04-07T00:45:38;59726.88;;;-147.28;100.00
51229;BME280;37304;52.216;6.874;2023-04-07T00:50:39;59726.88;;;-147.28;100.00
51229;BME280;37304;52.216;6.874;2023-04-07T00:55:41;59726.88;;;-147.28;100.00
51229;BME280;37304;52.216;6.874;2023-04-07T01:00:50;59726.88;;;-147.28;100.00
51229;BME280;37304;52.216;6.874;2023-04-07T01:06:00;59726.88;;;-147.28;100.00
51229;BME280;37304;52.216;6.874;2023-04-07T01:16:33;59726.88;;;-147.28;100.00
51229;BME280;37304;52.216;6.874;2023-04-07T01:21:43;59726.88;;;-147.28;100.00
51229;BME280;37304;52.216;6.874;2023-04-07T01:26:46;59726.88;;;-147.28;100.00
51229;BME280;37304;52.216;6.874;2023-04-07T01:31:58;59726.88;;;-147.28;100.00
51229;BME280;37304;52.216;6.874;2023-04-07T01:37:03;59726.88;;;-147.28;100.00
51229;BME280;37304;52.216;6.874;2023-04-07T01:42:05;59726.88;;;-147.28;100.00
51229;BME280;37304;52.216;6.874;2023-04-07T01:47:07;59726.88;;;-147.28;100.00
51229;BME280;37304;52.216;6.874;2023-04-07T01:52:10;59726.88;;;-147.28;100.00
51229;BME280;37304;52.216;6.874;2023-04-07T01:57:14;59726.88;;;-147.28;100.00
51229;BME280;37304;52.216;6.874;2023-04-07T02:02:14;59726.88;;;-147.28;100.00
51229;BME280;37304;52.216;6.874;2023-04-07T02:07:31;59726.88;;;-147.28;100.00
51229;BME280;37304;52.216;6.874;2023-04-07T02:12:38;59726.88;;;-147.28;100.00
51229;BME280;37304;52.216;6.874;2023-04-07T02:17:43;59726.88;;;-147.28;100.00
51229;BME280;37304;52.216;6.874;2023-04-07T02:22:50;59726.88;;;-147.28;100.00
51229;BME280;37304;52.216;6.874;2023-04-07T02:27:52;59726.88;;;-147.28;100.00
51229;BME280;37304;52.216;6.874;2023-04-07T02:32:53;59726.88;;;-147.28;100.00
51229;BME280;37304;52.216;6.874;2023-04-07T02:37:53;59726.88;;;-147.28;100.00
51229;BME280;37304;52.216;6.874;2023-04-07T02:42:55;59726.88;;;-147.28;100.00
51229;BME280;37304;52.216;6.874;2023-04-07T02:47:55;59726.88;;;-147.28;100.00
51229;BME280;37304;52.216;6.874;2023-04-07T02:52:56;59726.88;;;-147.28;100.00
51229;BME280;37304;52.216;6.874;2023-04-07T02:57:56;59726.88;;;-147.28;100.00
51229;BME280;37304;52.216;6.874;2023-04-07T03:03:09;59726.88;;;-147.28;100.00
51229;BME280;37304;52.216;6.874;2023-04-07T03:08:10;59726.88;;;-147.28;100.00
51229;BME280;37304;52.216;6.874;2023-04-07T03:13:10;59726.88;;;-147.28;100.00
51229;BME280;37304;52.216;6.874;2023-04-07T03:18:15;59726.88;;;-147.28;100.00
51229;BME280;37304;52.216;6.874;2023-04-07T03:23:15;59726.88;;;-147.28;100.00
51229;BME280;37304;52.216;6.874;2023-04-07T03:28:16;59726.88;;;-147.28;100.00
51229;BME280;37304;52.216;6.874;2023-04-07T03:33:16;59726.88;;;-147.28;100.00
51229;BME280;37304;52.216;6.874;2023-04-07T03:38:16;59726.88;;;-147.28;100.00
51229;BME280;37304;52.216;6.874;2023-04-07T03:43:17;59726.88;;;-147.28;100.00
51229;BME280;37304;52.216;6.874;2023-04-07T03:48:17;59726.88;;;-147.28;100.00
51229;BME280;37304;52.216;6.874;2023-04-07T03:53:18;59726.88;;;-147.28;100.00
51229;BME280;37304;52.216;6.874;2023-04-07T03:58:18;59726.88;;;-147.28;100.00
51229;BME280;37304;52.216;6.874;2023-04-07T04:03:19;59726.88;;;-147.28;100.00
51229;BME280;37304;52.216;6.874;2023-04-07T04:08:19;59726.88;;;-147.28;100.00
51229;BME280;37304;52.216;6.874;2023-04-07T04:13:22;59726.88;;;-147.28;100.00
51229;BME280;37304;52.216;6.874;2023-04-07T04:18:22;59726.88;;;-147.28;100.00
51229;BME280;37304;52.216;6.874;2023-04-07T04:23:23;59726.88;;;-147.28;100.00
51229;BME280;37304;52.216;6.874;2023-04-07T04:28:23;59726.88;;;-147.28;100.00
51229;BME280;37304;52.216;6.874;2023-04-07T04:33:25;59726.88;;;-147.28;100.00
51229;BME280;37304;52.216;6.874;2023-04-07T04:38:26;59726.88;;;-147.28;100.00
51229;BME280;37304;52.216;6.874;2023-04-07T04:43:27;59726.88;;;-147.28;100.00
51229;BME280;37304;52.216;6.874;2023-04-07T04:48:27;59726.88;;;-147.28;100.00
51229;BME280;37304;52.216;6.874;2023-04-07T04:53:29;59726.88;;;-147.28;100.00
51229;BME280;37304;52.216;6.874;2023-04-07T04:58:29;59726.88;;;-147.28;100.00
51229;BME280;37304;52.216;6.874;2023-04-07T05:03:31;59726.88;;;-147.28;100.00
51229;BME280;37304;52.216;6.874;2023-04-07T05:08:31;59726.88;;;-147.28;100.00
51229;BME280;37304;52.216;6.874;2023-04-07T05:13:32;59726.88;;;-147.28;100.00
51229;BME280;37304;52.216;6.874;2023-04-07T05:18:32;59726.88;;;-147.28;100.00
51229;BME280;37304;52.216;6.874;2023-04-07T05:23:32;59726.88;;;-147.28;100.00
51229;BME280;37304;52.216;6.874;2023-04-07T05:28:34;59726.88;;;-147.28;100.00
51229;BME280;37304;52.216;6.874;2023-04-07T05:33:34;59726.88;;;-147.28;100.00
51229;BME280;37304;52.216;6.874;2023-04-07T05:38:35;59726.88;;;-147.28;100.00
51229;BME280;37304;52.216;6.874;2023-04-07T05:43:35;59726.88;;;-147.28;100.00
51229;BME280;37304;52.216;6.874;2023-04-07T05:48:35;59726.88;;;-147.28;100.00
51229;BME280;37304;52.216;6.874;2023-04-07T05:53:36;59726.88;;;-147.28;100.00
51229;BME280;37304;52.216;6.874;2023-04-07T05:58:36;59726.88;;;-147.28;100.00
51229;BME280;37304;52.216;6.874;2023-04-07T06:03:37;59726.88;;;-147.28;100.00
51229;BME280;37304;52.216;6.874;2023-04-07T06:08:37;59726.88;;;-147.28;100.00
51229;BME280;37304;52.216;6.874;2023-04-07T06:13:37;59726.88;;;-147.28;100.00
51229;BME280;37304;52.216;6.874;2023-04-07T06:18:37;59726.88;;;-147.28;100.00
51229;BME280;37304;52.216;6.874;2023-04-07T06:23:38;59726.88;;;-147.28;100.00
51229;BME280;37304;52.216;6.874;2023-04-07T06:28:38;59726.88;;;-147.28;100.00
51229;BME280;37304;52.216;6.874;2023-04-07T06:33:39;59726.88;;;-147.28;100.00
51229;BME280;37304;52.216;6.874;2023-04-07T06:38:40;59726.88;;;-147.28;100.00
51229;BME280;37304;52.216;6.874;2023-04-07T06:43:40;59726.88;;;-147.28;100.00
51229;BME280;37304;52.216;6.874;2023-04-07T06:48:41;59726.88;;;-147.28;100.00
51229;BME280;37304;52.216;6.874;2023-04-07T06:53:41;59726.88;;;-147.28;100.00
51229;BME280;37304;52.216;6.874;2023-04-07T06:58:43;59726.88;;;-147.28;100.00
51229;BME280;37304;52.216;6.874;2023-04-07T07:03:43;59726.88;;;-147.28;100.00
51229;BME280;37304;52.216;6.874;2023-04-07T07:08:44;59726.88;;;-147.28;100.00
51229;BME280;37304;52.216;6.874;2023-04-07T07:13:44;59726.88;;;-147.28;100.00
51229;BME280;37304;52.216;6.874;2023-04-07T07:18:45;59726.88;;;-147.28;100.00
51229;BME280;37304;52.216;6.874;2023-04-07T07:23:45;59726.88;;;-147.28;100.00
51229;BME280;37304;52.216;6.874;2023-04-07T07:28:46;59726.88;;;-147.28;100.00
51229;BME280;37304;52.216;6.874;2023-04-07T07:33:46;59726.88;;;-147.28;100.00
51229;BME280;37304;52.216;6.874;2023-04-07T07:38:49;59726.88;;;-147.28;100.00
51229;BME280;37304;52.216;6.874;2023-04-07T07:43:50;59726.88;;;-147.28;100.00
51229;BME280;37304;52.216;6.874;2023-04-07T07:48:51;59726.88;;;-147.28;100.00
51229;BME280;37304;52.216;6.874;2023-04-07T07:53:51;59726.88;;;-147.28;100.00
51229;BME280;37304;52.216;6.874;2023-04-07T07:58:51;59726.88;;;-147.28;100.00
51229;BME280;37304;52.216;6.874;2023-04-07T08:03:52;59726.88;;;-147.28;100.00
51229;BME280;37304;52.216;6.874;2023-04-07T08:08:52;59726.88;;;-147.28;100.00
51229;BME280;37304;52.216;6.874;2023-04-07T08:16:28;101316.03;;;7.84;100.00
51229;BME280;37304;52.216;6.874;2023-04-07T08:21:29;101321.19;;;7.83;100.00
51229;BME280;37304;52.216;6.874;2023-04-07T08:26:30;101327.22;;;7.91;100.00
51229;BME280;37304;52.216;6.874;2023-04-07T08:31:31;101316.06;;;8.14;100.00
51229;BME280;37304;52.216;6.874;2023-04-07T08:36:31;101320.41;;;8.27;100.00
51229;BME280;37304;52.216;6.874;2023-04-07T08:41:37;101332.50;;;8.42;100.00
51229;BME280;37304;52.216;6.874;2023-04-07T08:46:38;101333.38;;;8.54;100.00
51229;BME280;37304;52.216;6.874;2023-04-07T08:51:44;101340.28;;;8.55;100.00
51229;BME280;37304;52.216;6.874;2023-04-07T08:56:46;101351.53;;;8.54;100.00
51229;BME280;37304;52.216;6.874;2023-04-07T09:01:47;101353.25;;;8.61;100.00
51229;BME280;37304;52.216;6.874;2023-04-07T09:06:48;101352.31;;;8.28;100.00
51229;BME280;37304;52.216;6.874;2023-04-07T09:11:49;101355.81;;;8.36;100.00
51229;BME280;37304;52.216;6.874;2023-04-07T09:16:50;101369.66;;;8.51;100.00
51229;BME280;37304;52.216;6.874;2023-04-07T09:21:51;101370.47;;;8.48;100.00
51229;BME280;37304;52.216;6.874;2023-04-07T09:27:15;101371.34;;;8.36;100.00
51229;BME280;37304;52.216;6.874;2023-04-07T09:32:36;101379.97;;;8.30;100.00
51229;BME280;37304;52.216;6.874;2023-04-07T09:37:40;101372.22;;;8.44;100.00
51229;BME280;37304;52.216;6.874;2023-04-07T09:42:45;101367.94;;;8.64;100.00
51229;BME280;37304;52.216;6.874;2023-04-07T09:47:45;101380.88;;;8.76;100.00
51229;BME280;37304;52.216;6.874;2023-04-07T09:52:52;101376.53;;;8.56;100.00
51229;BME280;37304;52.216;6.874;2023-04-07T09:57:53;101380.00;;;8.55;100.00
51229;BME280;37304;52.216;6.874;2023-04-07T10:02:57;101386.94;;;8.69;100.00
51229;BME280;37304;52.216;6.874;2023-04-07T10:07:59;101382.59;;;8.76;100.00
51229;BME280;37304;52.216;6.874;2023-04-07T10:13:03;101391.25;;;8.78;100.00
51229;BME280;37304;52.216;6.874;2023-04-07T10:18:05;101394.69;;;8.86;100.00
51229;BME280;37304;52.216;6.874;2023-04-07T10:23:18;101393.81;;;8.57;100.00
51229;BME280;37304;52.216;6.874;2023-04-07T10:28:25;101405.06;;;8.55;100.00
51229;BME280;37304;52.216;6.874;2023-04-07T10:33:47;101411.09;;;8.51;100.00
51229;BME280;37304;52.216;6.874;2023-04-07T10:44:09;101420.59;;;8.55;100.00
51229;BME280;37304;52.216;6.874;2023-04-07T10:49:12;101424.88;;;8.45;100.00
51229;BME280;37304;52.216;6.874;2023-04-07T10:54:22;101419.75;;;8.71;100.00
51229;BME280;37304;52.216;6.874;2023-04-07T10:59:26;101428.41;;;8.75;100.00
51229;BME280;37304;52.216;6.874;2023-04-07T11:04:35;101430.09;;;8.62;100.00
51229;BME280;37304;52.216;6.874;2023-04-07T11:09:36;101441.34;;;8.58;100.00
51229;BME280;37304;52.216;6.874;2023-04-07T11:14:36;101442.16;;;8.48;100.00
51229;BME280;37304;52.216;6.874;2023-04-07T11:19:50;101456.81;;;8.36;100.00
51229;BME280;37304;52.216;6.874;2023-04-07T11:24:51;101454.22;;;8.39;100.00
51229;BME280;37304;52.216;6.874;2023-04-07T11:29:52;101452.53;;;8.58;100.00
51229;BME280;37304;52.216;6.874;2023-04-07T11:34:52;101461.19;;;8.62;100.00
51229;BME280;37304;52.216;6.874;2023-04-07T11:39:57;101462.94;;;8.65;100.00
51229;BME280;37304;52.216;6.874;2023-04-07T11:44:58;101463.78;;;8.71;100.00
51229;BME280;37304;52.216;6.874;2023-04-07T11:49:59;101469.00;;;8.79;100.00
51229;BME280;37304;52.216;6.874;2023-04-07T11:55:00;101466.38;;;8.62;100.00
51229;BME280;37304;52.216;6.874;2023-04-07T12:07:09;101478.50;;;8.77;100.00
51229;BME280;37304;52.216;6.874;2023-04-07T12:18:21;101484.53;;;8.90;100.00
51229;BME280;37304;52.216;6.874;2023-04-07T12:23:41;101493.22;;;8.98;100.00
51229;BME280;37304;52.216;6.874;2023-04-07T12:47:11;101505.31;;;9.18;100.00
51229;BME280;37304;52.216;6.874;2023-04-07T12:52:37;101501.84;;;9.17;100.00
51229;BME280;37304;52.216;6.874;2023-04-07T13:21:30;101515.63;;;9.69;100.00
51229;BME280;37304;52.216;6.874;2023-04-07T13:26:28;101513.06;;;9.61;100.00
51229;BME280;37304;52.216;6.874;2023-04-07T13:31:34;101508.72;;;9.70;100.00
51229;BME280;37304;52.216;6.874;2023-04-07T13:36:35;101513.84;;;9.85;100.00
51229;BME280;37304;52.216;6.874;2023-04-07T13:41:38;101521.59;;;9.93;100.00
51229;BME280;37304;52.216;6.874;2023-04-07T13:52:04;101517.34;;;9.81;100.00
51229;BME280;37304;52.216;6.874;2023-04-07T13:57:05;101515.56;;;9.97;100.00
51229;BME280;37304;52.216;6.874;2023-04-07T14:02:09;101510.31;;;10.05;100.00
51229;BME280;37304;52.216;6.874;2023-04-07T14:07:45;101512.97;;;9.93;100.00
51229;BME280;37304;52.216;6.874;2023-04-07T14:18:30;101526.00;;;9.55;100.00
51229;BME280;37304;52.216;6.874;2023-04-07T14:23:36;101520.00;;;9.28;100.00
51229;BME280;37304;52.216;6.874;2023-04-07T14:34:06;101519.16;;;9.31;100.00
51229;BME280;37304;52.216;6.874;2023-04-07T14:39:07;101519.16;;;9.34;100.00
51229;BME280;37304;52.216;6.874;2023-04-07T14:44:10;101526.03;;;9.52;100.00
51229;BME280;37304;52.216;6.874;2023-04-07T14:49:15;101528.59;;;9.80;100.00
51229;BME280;37304;52.216;6.874;2023-04-07T14:54:16;101516.41;;;10.05;100.00
51229;BME280;37304;52.216;6.874;2023-04-07T14:59:16;101528.53;;;10.00;100.00
51229;BME280;37304;52.216;6.874;2023-04-07T15:04:19;101529.44;;;9.74;100.00
51229;BME280;37304;52.216;6.874;2023-04-07T15:09:38;101538.06;;;9.89;100.00
51229;BME280;37304;52.216;6.874;2023-04-07T15:14:43;101536.38;;;9.83;100.00
51229;BME280;37304;52.216;6.874;2023-04-07T15:19:47;101541.53;;;9.89;100.00
51229;BME280;37304;52.216;6.874;2023-04-07T15:24:50;101543.28;;;9.87;100.00
51229;BME280;37304;52.216;6.874;2023-04-07T15:29:51;101551.06;;;9.86;100.00
51229;BME280;37304;52.216;6.874;2023-04-07T15:34:51;101552.78;;;9.95;100.00
51229;BME280;37304;52.216;6.874;2023-04-07T15:39:52;101551.03;;;10.04;100.00
51229;BME280;37304;52.216;6.874;2023-04-07T15:44:52;101545.84;;;10.01;100.00
51229;BME280;37304;52.216;6.874;2023-04-07T15:49:52;101548.41;;;10.06;100.00
51229;BME280;37304;52.216;6.874;2023-04-07T15:54:53;101546.72;;;9.93;100.00
51229;BME280;37304;52.216;6.874;2023-04-07T15:59:53;101554.50;;;9.97;100.00
51229;BME280;37304;52.216;6.874;2023-04-07T16:04:53;101558.81;;;9.97;100.00
51229;BME280;37304;52.216;6.874;2023-04-07T16:09:53;101559.69;;;10.02;100.00
51229;BME280;37304;52.216;6.874;2023-04-07T16:14:56;101565.75;;;9.98;100.00
51229;BME280;37304;52.216;6.874;2023-04-07T16:19:56;101558.81;;;10.03;100.00
51229;BME280;37304;52.216;6.874;2023-04-07T16:24:56;101561.44;;;9.98;100.00
51229;BME280;37304;52.216;6.874;2023-04-07T16:29:57;101570.09;;;9.93;100.00
51229;BME280;37304;52.216;6.874;2023-04-07T16:34:57;101567.44;;;10.08;100.00
51229;BME280;37304;52.216;6.874;2023-04-07T16:39:58;101575.28;;;9.97;100.00
51229;BME280;37304;52.216;6.874;2023-04-07T16:44:59;101582.16;;;10.06;100.00
51229;BME280;37304;52.216;6.874;2023-04-07T16:50:03;101583.88;;;10.10;100.00
51229;BME280;37304;52.216;6.874;2023-04-07T16:55:04;101589.13;;;9.95;100.00
51229;BME280;37304;52.216;6.874;2023-04-07T17:00:05;101592.59;;;10.01;100.00
51229;BME280;37304;52.216;6.874;2023-04-07T17:05:06;101597.78;;;9.97;100.00
51229;BME280;37304;52.216;6.874;2023-04-07T17:10:07;101596.03;;;9.96;100.00
51229;BME280;37304;52.216;6.874;2023-04-07T17:15:07;101600.38;;;9.97;100.00
51229;BME280;37304;52.216;6.874;2023-04-07T17:20:08;101609.00;;;10.08;100.00
51229;BME280;37304;52.216;6.874;2023-04-07T17:25:10;101614.19;;;10.08;100.00
51229;BME280;37304;52.216;6.874;2023-04-07T17:30:10;101625.47;;;10.01;100.00
51229;BME280;37304;52.216;6.874;2023-04-07T17:35:11;101632.41;;;9.96;100.00
51229;BME280;37304;52.216;6.874;2023-04-07T17:40:11;101643.66;;;9.84;100.00
51229;BME280;37304;52.216;6.874;2023-04-07T17:45:12;101645.41;;;9.63;100.00
51229;BME280;37304;52.216;6.874;2023-04-07T17:50:13;101655.78;;;9.57;100.00
51229;BME280;37304;52.216;6.874;2023-04-07T17:55:14;101672.19;;;9.43;100.00
51229;BME280;37304;52.216;6.874;2023-04-07T18:00:14;101675.63;;;9.35;100.00
51229;BME280;37304;52.216;6.874;2023-04-07T18:05:15;101677.31;;;9.12;100.00
51229;BME280;37304;52.216;6.874;2023-04-07T18:10:15;101681.63;;;9.02;100.00
51229;BME280;37304;52.216;6.874;2023-04-07T18:15:19;101693.66;;;8.89;100.00
51229;BME280;37304;52.216;6.874;2023-04-07T18:20:20;101693.59;;;8.76;100.00
51229;BME280;37304;52.216;6.874;2023-04-07T18:25:20;101692.69;;;8.63;100.00
51229;BME280;37304;52.216;6.874;2023-04-07T18:30:24;101699.50;;;8.51;100.00
51229;BME280;37304;52.216;6.874;2023-04-07T18:35:25;101704.56;;;8.36;100.00
51229;BME280;37304;52.216;6.874;2023-04-07T18:40:26;101716.53;;;8.20;100.00
51229;BME280;37304;52.216;6.874;2023-04-07T18:45:41;101717.31;;;8.06;100.00
51229;BME280;37304;52.216;6.874;2023-04-07T18:50:53;101737.91;;;7.94;100.00
51229;BME280;37304;52.216;6.874;2023-04-07T19:02:10;101744.69;;;7.79;100.00
51229;BME280;37304;52.216;6.874;2023-04-07T19:07:19;101754.16;;;7.79;100.00
51229;BME280;37304;52.216;6.874;2023-04-07T19:12:54;101756.59;;;7.63;100.00
51229;BME280;37304;52.216;6.874;2023-04-07T19:19:05;101764.28;;;7.55;100.00
51229;BME280;37304;52.216;6.874;2023-04-07T19:23:52;101766.75;;;7.46;100.00
51229;BME280;37304;52.216;6.874;2023-04-07T19:28:55;101768.34;;;7.33;100.00
51229;BME280;37304;52.216;6.874;2023-04-07T19:34:10;101771.63;;;7.20;100.00
51229;BME280;37304;52.216;6.874;2023-04-07T19:39:10;101780.94;;;7.05;100.00
51229;BME280;37304;52.216;6.874;2023-04-07T19:44:30;101778.16;;;6.91;100.00
51229;BME280;37304;52.216;6.874;2023-04-07T19:49:43;101793.44;;;6.76;100.00
51229;BME280;37304;52.216;6.874;2023-04-07T19:54:49;101790.63;;;6.62;100.00
51229;BME280;37304;52.216;6.874;2023-04-07T19:59:53;101799.88;;;6.46;100.00
51229;BME280;37304;52.216;6.874;2023-04-07T20:04:53;101806.66;;;6.37;100.00
51229;BME280;37304;52.216;6.874;2023-04-07T20:09:57;101814.25;;;6.30;100.00
51229;BME280;37304;52.216;6.874;2023-04-07T20:15:06;101808.84;;;6.14;100.00
51229;BME280;37304;52.216;6.874;2023-04-07T20:20:13;101816.44;;;6.06;100.00
51229;BME280;37304;52.216;6.874;2023-04-07T20:25:16;101820.34;;;5.86;100.00
51229;BME280;37304;52.216;6.874;2023-04-07T20:30:17;101826.22;;;5.78;100.00
51229;BME280;37304;52.216;6.874;2023-04-07T20:35:20;101825.31;;;5.76;100.00
51229;BME280;37304;52.216;6.874;2023-04-07T20:40:26;101825.78;;;5.57;100.00
51229;BME280;37304;52.216;6.874;2023-04-07T20:45:31;101834.22;;;5.48;100.00
51229;BME280;37304;52.216;6.874;2023-04-07T20:50:41;101831.47;;;5.38;100.00
51229;BME280;37304;52.216;6.874;2023-04-07T20:55:41;101835.59;;;5.32;100.00
51229;BME280;37304;52.216;6.874;2023-04-07T21:00:43;101833.72;;;5.24;100.00
51229;BME280;37304;52.216;6.874;2023-04-07T21:05:43;101838.63;;;5.12;100.00
51229;BME280;37304;52.216;6.874;2023-04-07T21:10:44;101837.53;;;5.01;100.00
51229;BME280;37304;52.216;6.874;2023-04-07T21:16:20;101848.34;;;4.87;100.00
51229;BME280;37304;52.216;6.874;2023-04-07T21:21:23;101855.84;;;4.76;100.00
51229;BME280;37304;52.216;6.874;2023-04-07T21:26:23;101859.88;;;4.65;100.00
51229;BME280;37304;52.216;6.874;2023-04-07T21:31:25;101856.56;;;4.71;100.00
51229;BME280;37304;52.216;6.874;2023-04-07T21:36:25;101860.47;;;4.55;100.00
51229;BME280;37304;52.216;6.874;2023-04-07T21:41:26;101862.03;;;4.48;100.00
51229;BME280;37304;52.216;6.874;2023-04-07T21:46:26;101861.13;;;4.46;100.00
51229;BME280;37304;52.216;6.874;2023-04-07T21:51:28;101856.81;;;4.46;100.00
51229;BME280;37304;52.216;6.874;2023-04-07T21:56:29;101862.41;;;4.30;100.00
51229;BME280;37304;52.216;6.874;2023-04-07T22:01:30;101869.44;;;4.35;100.00
51229;BME280;37304;52.216;6.874;2023-04-07T22:06:31;101868.19;;;4.21;100.00
51229;BME280;37304;52.216;6.874;2023-04-07T22:11:32;101866.25;;;4.12;100.00
51229;BME280;37304;52.216;6.874;2023-04-07T22:16:32;101869.34;;;3.99;100.00
51229;BME280;37304;52.216;6.874;2023-04-07T22:21:33;101872.63;;;3.94;100.00
51229;BME280;37304;52.216;6.874;2023-04-07T22:26:33;101880.09;;;3.85;100.00
51229;BME280;37304;52.216;6.874;2023-04-07T22:31:34;101882.91;;;3.93;100.00
51229;BME280;37304;52.216;6.874;2023-04-07T22:36:37;101887.06;;;3.89;100.00
51229;BME280;37304;52.216;6.874;2023-04-07T22:41:37;101888.19;;;3.98;100.00
51229;BME280;37304;52.216;6.874;2023-04-07T22:46:40;101894.19;;;3.98;100.00
51229;BME280;37304;52.216;6.874;2023-04-07T22:51:42;101898.22;;;4.20;100.00
51229;BME280;37304;52.216;6.874;2023-04-07T22:56:47;101894.34;;;4.36;100.00
51229;BME280;37304;52.216;6.874;2023-04-07T23:01:50;101886.75;;;4.76;100.00
51229;BME280;37304;52.216;6.874;2023-04-07T23:06:51;101881.06;;;4.91;100.00
51229;BME280;37304;52.216;6.874;2023-04-07T23:11:54;101884.69;;;4.98;100.00
51229;BME280;37304;52.216;6.874;2023-04-07T23:16:55;101892.41;;;4.98;100.00
51229;BME280;37304;52.216;6.874;2023-04-07T23:21:59;101891.56;;;4.98;100.00
51229;BME280;37304;52.216;6.874;2023-04-07T23:26:59;101896.59;;;4.94;100.00
51229;BME280;37304;52.216;6.874;2023-04-07T23:32:01;101899.94;;;4.90;100.00
51229;BME280;37304;52.216;6.874;2023-04-07T23:37:01;101901.53;;;4.85;100.00
51229;BME280;37304;52.216;6.874;2023-04-07T23:42:02;101903.19;;;4.81;100.00
51229;BME280;37304;52.216;6.874;2023-04-07T23:47:02;101906.44;;;4.74;100.00
51229;BME280;37304;52.216;6.874;2023-04-07T23:52:03;101910.63;;;4.71;100.00
51229;BME280;37304;52.216;6.874;2023-04-07T23:57:03;101908.75;;;4.63;100.00
